createdAt,value
2018-03-28T00:00:59.255Z,14.65
2018-03-28T00:03:26.802Z,12.10
2018-03-28T00:05:54.326Z,18.77
2018-03-28T00:08:21.863Z,13.10
2018-03-28T00:10:49.406Z,14.10
2018-03-28T00:13:16.925Z,14.70
2018-03-28T00:15:44.240Z,18.23
2018-03-28T00:18:11.767Z,11.38
2018-03-28T00:20:39.322Z,11.35
2018-03-28T00:23:06.833Z,13.27
2018-03-28T00:25:34.376Z,13.73
2018-03-28T00:28:01.910Z,13.88
2018-03-28T00:30:29.466Z,17.73
2018-03-28T00:32:56.985Z,12.27
2018-03-28T00:35:24.542Z,12.50
2018-03-28T00:37:52.075Z,11.30
2018-03-28T00:40:19.630Z,17.17
2018-03-28T00:42:47.166Z,12.37
2018-03-28T00:45:14.726Z,13.23
2018-03-28T00:47:42.255Z,15.82
2018-03-28T00:50:09.813Z,17.35
2018-03-28T00:52:37.331Z,13.18
2018-03-28T00:55:04.877Z,17.33
2018-03-28T00:57:32.413Z,17.90
2018-03-28T00:59:59.961Z,14.55
2018-03-28T01:02:27.493Z,12.60
2018-03-28T01:04:55.018Z,15.82
2018-03-28T01:07:22.558Z,19.05
2018-03-28T01:09:50.081Z,18.37
2018-03-28T01:12:17.609Z,12.88
2018-03-28T01:14:45.326Z,15.38
2018-03-28T01:17:12.859Z,17.02
2018-03-28T01:19:40.440Z,18.70
2018-03-28T01:22:08.132Z,13.65
2018-03-28T01:24:35.657Z,15.00
2018-03-28T01:27:03.193Z,16.85
2018-03-28T01:29:30.716Z,17.10
2018-03-28T01:31:58.298Z,19.67
2018-03-28T01:34:25.830Z,21.37
2018-03-28T01:36:53.380Z,14.02
2018-03-28T01:39:20.910Z,17.70
2018-03-28T01:41:48.465Z,17.02
2018-03-28T01:44:15.990Z,14.43
2018-03-28T01:46:43.538Z,16.37
2018-03-28T01:49:11.073Z,18.85
2018-03-28T01:51:38.400Z,21.83
2018-03-28T01:54:05.925Z,16.02
2018-03-28T01:56:33.470Z,17.10
2018-03-28T01:59:01.013Z,15.95
2018-03-28T02:01:29.539Z,14.00
2018-03-28T02:03:57.066Z,18.95
2018-03-28T02:06:24.621Z,16.55
2018-03-28T02:08:52.150Z,17.15
2018-03-28T02:11:19.697Z,20.50
2018-03-28T02:13:47.227Z,13.57
2018-03-28T02:16:14.779Z,16.50
2018-03-28T02:18:42.314Z,21.73
2018-03-28T02:21:09.841Z,15.77
2018-03-28T02:23:37.449Z,23.08
2018-03-28T02:26:04.982Z,16.30
2018-03-28T02:28:32.529Z,19.08
2018-03-28T02:31:00.066Z,17.60
2018-03-28T02:33:27.591Z,15.90
2018-03-28T02:35:54.915Z,16.90
2018-03-28T02:38:22.453Z,18.30
2018-03-28T02:40:49.990Z,16.50
2018-03-28T02:43:17.532Z,17.30
2018-03-28T02:45:45.065Z,15.98
2018-03-28T02:48:12.613Z,15.73
2018-03-28T02:50:40.145Z,20.62
2018-03-28T02:53:07.425Z,16.60
2018-03-28T02:55:34.960Z,16.20
2018-03-28T02:58:02.502Z,20.00
2018-03-28T03:00:30.027Z,14.40
2018-03-28T03:02:57.553Z,16.42
2018-03-28T03:05:25.079Z,14.85
2018-03-28T03:07:52.622Z,12.68
2018-03-28T03:10:20.148Z,13.77
2018-03-28T03:12:47.676Z,13.45
2018-03-28T03:15:15.220Z,15.52
2018-03-28T03:17:42.740Z,14.32
2018-03-28T03:20:10.257Z,14.93
2018-03-28T03:22:37.790Z,15.73
2018-03-28T03:25:05.317Z,11.40
2018-03-28T03:27:32.860Z,12.65
2018-03-28T03:30:00.413Z,12.02
2018-03-28T03:32:27.942Z,11.07
2018-03-28T03:34:55.477Z,11.38
2018-03-28T03:37:23.015Z,12.25
2018-03-28T03:39:50.540Z,10.55
2018-03-28T03:42:18.062Z,9.80
2018-03-28T03:44:45.596Z,6.70
2018-03-28T03:47:13.121Z,10.15
2018-03-28T03:49:40.647Z,9.43
2018-03-28T03:52:08.203Z,10.73
2018-03-28T03:54:35.721Z,7.82
2018-03-28T03:57:03.270Z,9.73
2018-03-28T03:59:31.766Z,9.80
2018-03-28T04:02:00.253Z,7.03
2018-03-28T04:04:27.770Z,7.60
2018-03-28T04:06:55.289Z,7.45
2018-03-28T04:09:23.773Z,8.32
2018-03-28T04:11:52.223Z,6.03
2018-03-28T04:14:19.748Z,6.87
2018-03-28T04:16:47.262Z,5.85
2018-03-28T04:19:14.789Z,6.85
2018-03-28T04:21:42.335Z,4.12
2018-03-28T04:24:09.849Z,4.43
2018-03-28T04:26:37.362Z,3.75
2018-03-28T04:29:04.884Z,3.30
2018-03-28T04:31:32.402Z,3.15
2018-03-28T04:34:00.973Z,1.90
2018-03-28T04:36:28.489Z,2.42
2018-03-28T04:38:56.008Z,2.20
2018-03-28T04:41:23.522Z,2.40
2018-03-28T04:43:51.044Z,2.10
2018-03-28T04:46:18.581Z,2.47
2018-03-28T04:48:47.081Z,1.90
2018-03-28T04:51:14.608Z,1.73
2018-03-28T04:53:42.130Z,2.05
2018-03-28T04:56:09.648Z,1.92
2018-03-28T04:58:37.191Z,1.80
2018-03-28T05:01:04.705Z,2.62
2018-03-28T05:03:32.225Z,1.90
2018-03-28T05:05:59.791Z,1.65
2018-03-28T05:08:27.476Z,1.70
2018-03-28T05:10:55.021Z,1.80
2018-03-28T05:13:22.541Z,1.40
2018-03-28T05:15:51.113Z,1.40
2018-03-28T05:18:18.793Z,1.23
2018-03-28T05:20:46.304Z,1.25
2018-03-28T05:23:13.826Z,1.33
2018-03-28T05:25:41.352Z,1.70
2018-03-28T05:28:08.908Z,1.40
2018-03-28T05:30:36.425Z,1.40
2018-03-28T05:33:03.977Z,1.75
2018-03-28T05:35:31.496Z,1.73
2018-03-28T05:37:59.026Z,2.22
2018-03-28T05:40:26.578Z,1.80
2018-03-28T05:42:54.133Z,2.55
2018-03-28T05:45:21.657Z,1.98
2018-03-28T05:47:49.188Z,3.55
2018-03-28T05:50:16.753Z,2.42
2018-03-28T05:52:44.447Z,2.20
2018-03-28T05:55:11.962Z,2.55
2018-03-28T05:57:39.489Z,2.30
2018-03-28T06:00:06.783Z,2.70
2018-03-28T06:02:34.300Z,2.45
2018-03-28T06:05:02.179Z,2.55
2018-03-28T06:07:29.694Z,4.40
2018-03-28T06:09:57.227Z,4.47
2018-03-28T06:12:24.765Z,3.28
2018-03-28T06:14:52.284Z,4.03
2018-03-28T06:17:19.822Z,3.22
2018-03-28T06:19:47.347Z,3.30
2018-03-28T06:22:14.861Z,4.50
2018-03-28T06:24:43.334Z,5.28
2018-03-28T06:27:10.868Z,6.55
2018-03-28T06:29:38.425Z,6.97
2018-03-28T06:32:05.950Z,3.17
2018-03-28T06:34:33.476Z,3.83
2018-03-28T06:37:01.018Z,3.65
2018-03-28T06:39:28.546Z,4.37
2018-03-28T06:41:56.093Z,3.58
2018-03-28T06:44:23.638Z,4.62
2018-03-28T06:46:51.165Z,5.55
2018-03-28T06:49:18.701Z,5.80
2018-03-28T06:51:47.198Z,4.45
2018-03-28T06:54:14.725Z,13.05
2018-03-28T06:56:43.270Z,3.25
2018-03-28T06:59:10.811Z,3.35
2018-03-28T07:01:38.358Z,7.03
2018-03-28T07:04:05.671Z,3.00
2018-03-28T07:06:33.202Z,12.40
2018-03-28T07:09:00.719Z,6.55
2018-03-28T07:11:29.172Z,4.68
2018-03-28T07:13:56.721Z,3.45
2018-03-28T07:16:24.250Z,4.50
2018-03-28T07:18:51.789Z,5.12
2018-03-28T07:21:19.309Z,5.68
2018-03-28T07:23:46.843Z,7.60
2018-03-28T07:26:14.390Z,6.62
2018-03-28T07:28:41.915Z,4.97
2018-03-28T07:31:09.445Z,4.93
2018-03-28T07:33:36.995Z,2.60
2018-03-28T07:36:04.512Z,5.97
2018-03-28T07:38:32.061Z,5.43
2018-03-28T07:40:59.592Z,4.80
2018-03-28T07:43:27.110Z,2.95
2018-03-28T07:45:54.630Z,4.40
2018-03-28T07:48:22.165Z,4.78
2018-03-28T07:50:49.704Z,2.42
2018-03-28T07:53:17.222Z,3.20
2018-03-28T07:55:44.745Z,3.75
2018-03-28T07:58:12.329Z,4.37
2018-03-28T08:00:39.856Z,8.23
2018-03-28T08:03:07.400Z,4.25
2018-03-28T08:05:34.922Z,4.40
2018-03-28T08:08:02.454Z,11.23
2018-03-28T08:10:31.012Z,3.42
2018-03-28T08:12:58.535Z,9.65
2018-03-28T08:15:26.067Z,3.05
2018-03-28T08:17:53.597Z,2.30
2018-03-28T08:20:21.118Z,4.47
2018-03-28T08:22:48.637Z,6.70
2018-03-28T08:25:16.154Z,1.45
2018-03-28T08:27:43.682Z,3.33
2018-03-28T08:30:11.204Z,4.62
2018-03-28T08:32:38.728Z,1.75
2018-03-28T08:35:06.241Z,1.83
2018-03-28T08:37:33.760Z,2.90
2018-03-28T08:40:02.291Z,1.40
2018-03-28T08:42:29.816Z,1.30
2018-03-28T08:44:57.345Z,3.40
2018-03-28T08:47:24.864Z,1.65
2018-03-28T08:49:52.394Z,3.30
2018-03-28T08:52:19.915Z,2.80
2018-03-28T08:54:47.437Z,3.08
2018-03-28T08:57:15.960Z,3.65
2018-03-28T08:59:43.485Z,1.20
2018-03-28T09:02:11.008Z,2.75
2018-03-28T09:04:38.534Z,4.05
2018-03-28T09:07:06.061Z,6.80
2018-03-28T09:09:33.581Z,2.05
2018-03-28T09:12:01.101Z,2.10
2018-03-28T09:14:28.620Z,1.27
2018-03-28T09:16:56.134Z,1.65
2018-03-28T09:19:23.897Z,1.98
2018-03-28T09:21:52.373Z,1.33
2018-03-28T09:24:19.927Z,1.80
2018-03-28T09:26:47.441Z,2.28
2018-03-28T09:29:14.979Z,1.27
2018-03-28T09:31:42.498Z,3.87
2018-03-28T09:34:10.025Z,2.05
2018-03-28T09:36:37.554Z,2.60
2018-03-28T09:39:05.537Z,2.75
2018-03-28T09:41:33.053Z,1.90
2018-03-28T09:44:00.577Z,1.67
2018-03-28T09:46:28.095Z,1.30
2018-03-28T09:48:55.626Z,1.52
2018-03-28T09:51:23.166Z,1.23
2018-03-28T09:53:50.705Z,1.10
2018-03-28T09:56:18.240Z,2.20
2018-03-28T09:58:46.607Z,3.22
2018-03-28T10:01:19.681Z,3.95
2018-03-28T10:03:50.055Z,3.45
2018-03-28T10:06:17.581Z,1.35
2018-03-28T10:08:45.110Z,1.10
2018-03-28T10:11:12.637Z,2.20
2018-03-28T10:13:40.166Z,2.22
2018-03-28T10:16:07.690Z,1.17
2018-03-28T10:18:35.231Z,4.70
2018-03-28T10:21:02.787Z,1.42
2018-03-28T10:23:30.085Z,1.25
2018-03-28T10:25:57.617Z,2.25
2018-03-28T10:28:25.135Z,2.03
2018-03-28T10:30:52.653Z,1.40
2018-03-28T10:33:20.174Z,2.25
2018-03-28T10:35:48.658Z,1.80
2018-03-28T10:38:16.185Z,3.47
2018-03-28T10:40:43.709Z,1.67
2018-03-28T10:43:11.223Z,1.80
2018-03-28T10:45:38.740Z,1.50
2018-03-28T10:48:06.282Z,1.17
2018-03-28T10:50:34.751Z,1.98
2018-03-28T10:53:02.273Z,1.95
2018-03-28T10:55:29.788Z,1.60
2018-03-28T10:57:57.314Z,1.40
2018-03-28T11:00:24.846Z,1.00
2018-03-28T11:02:52.363Z,0.93
2018-03-28T11:05:19.890Z,0.90
2018-03-28T11:07:47.417Z,1.00
2018-03-28T11:10:15.726Z,1.25
2018-03-28T11:12:43.242Z,0.80
2018-03-28T11:15:10.757Z,1.00
2018-03-28T11:17:38.270Z,0.85
2018-03-28T11:20:05.802Z,0.70
2018-03-28T11:22:33.328Z,0.80
2018-03-28T11:25:00.842Z,0.60
2018-03-28T11:27:28.371Z,1.02
2018-03-28T11:29:55.896Z,3.17
2018-03-28T11:32:23.422Z,0.98
2018-03-28T11:34:50.947Z,0.95
2018-03-28T11:37:18.477Z,1.00
2018-03-28T11:39:45.997Z,1.00
2018-03-28T11:42:14.477Z,0.88
2018-03-28T11:44:42.001Z,0.75
2018-03-28T11:47:10.563Z,0.65
2018-03-28T11:49:38.073Z,0.90
2018-03-28T11:52:05.602Z,0.70
2018-03-28T11:54:33.148Z,0.70
2018-03-28T11:57:00.681Z,0.70
2018-03-28T11:59:29.204Z,0.60
2018-03-28T12:01:56.725Z,0.70
2018-03-28T12:04:24.268Z,0.85
2018-03-28T12:06:51.788Z,1.65
2018-03-28T12:09:19.340Z,2.05
2018-03-28T12:11:46.860Z,0.80
2018-03-28T12:14:14.453Z,1.00
2018-03-28T12:16:42.125Z,2.10
2018-03-28T12:19:09.649Z,1.60
2018-03-28T12:21:37.175Z,1.45
2018-03-28T12:24:04.693Z,1.50
2018-03-28T12:26:32.249Z,1.15
2018-03-28T12:28:59.774Z,1.20
2018-03-28T12:31:27.294Z,1.10
2018-03-28T12:33:54.826Z,1.23
2018-03-28T12:36:22.356Z,2.25
2018-03-28T12:38:49.895Z,2.55
2018-03-28T12:41:17.410Z,1.52
2018-03-28T12:43:44.934Z,1.50
2018-03-28T12:46:12.461Z,1.50
2018-03-28T12:48:39.983Z,1.15
2018-03-28T12:51:07.521Z,4.40
2018-03-28T12:53:35.972Z,3.47
2018-03-28T12:56:03.494Z,12.07
2018-03-28T12:58:31.958Z,1.30
2018-03-28T13:00:59.493Z,7.70
2018-03-28T13:03:27.039Z,1.95
2018-03-28T13:05:54.553Z,1.73
2018-03-28T13:08:22.098Z,1.40
2018-03-28T13:10:49.618Z,1.50
2018-03-28T13:13:17.177Z,3.70
2018-03-28T13:15:44.694Z,1.60
2018-03-28T13:18:13.244Z,3.97
2018-03-28T13:20:41.715Z,1.58
2018-03-28T13:23:09.256Z,6.35
2018-03-28T13:25:36.768Z,1.33
2018-03-28T13:28:05.259Z,2.55
2018-03-28T13:30:33.742Z,1.55
2018-03-28T13:33:02.213Z,1.40
2018-03-28T13:35:29.505Z,1.30
2018-03-28T13:37:57.065Z,1.60
2018-03-28T13:40:24.600Z,4.07
2018-03-28T13:42:53.098Z,1.67
2018-03-28T13:45:20.622Z,1.90
2018-03-28T13:47:48.158Z,2.35
2018-03-28T13:50:16.673Z,1.52
2018-03-28T13:52:44.195Z,2.00
2018-03-28T13:55:11.747Z,2.65
2018-03-28T13:57:40.245Z,1.85
2018-03-28T14:00:07.666Z,1.80
2018-03-28T14:02:35.090Z,1.83
2018-03-28T14:05:02.610Z,1.62
2018-03-28T14:07:30.135Z,2.15
2018-03-28T14:09:58.588Z,2.17
2018-03-28T14:12:26.112Z,1.65
2018-03-28T14:14:55.153Z,2.10
2018-03-28T14:17:22.704Z,1.40
2018-03-28T14:19:50.229Z,1.87
2018-03-28T14:22:18.708Z,1.55
2018-03-28T14:24:46.461Z,1.75
2018-03-28T14:27:14.204Z,1.52
2018-03-28T14:29:41.754Z,1.80
2018-03-28T14:32:09.301Z,1.60
2018-03-28T14:34:36.841Z,1.87
2018-03-28T14:37:04.401Z,1.60
2018-03-28T14:39:32.911Z,1.75
2018-03-28T14:42:00.161Z,1.60
2018-03-28T14:44:28.091Z,1.50
2018-03-28T14:46:55.900Z,1.92
2018-03-28T14:49:23.728Z,1.50
2018-03-28T14:51:51.385Z,1.70
2018-03-28T14:54:19.007Z,1.67
2018-03-28T14:56:46.546Z,2.03
2018-03-28T14:59:14.093Z,3.45
2018-03-28T15:01:41.545Z,2.20
2018-03-28T15:04:09.158Z,2.97
2018-03-28T15:06:36.677Z,2.30
2018-03-28T15:09:03.735Z,1.87
2018-03-28T15:11:32.202Z,2.90
2018-03-28T15:13:59.778Z,2.20
2018-03-28T15:16:27.408Z,3.70
2018-03-28T15:18:55.047Z,3.03
2018-03-28T15:21:22.714Z,5.35
2018-03-28T15:23:50.255Z,2.47
2018-03-28T15:26:17.784Z,2.12
2018-03-28T15:28:45.666Z,2.78
2018-03-28T15:31:13.205Z,2.55
2018-03-28T15:33:40.732Z,2.97
2018-03-28T15:36:09.198Z,3.22
2018-03-28T15:38:36.749Z,7.18
2018-03-28T15:41:04.282Z,3.75
2018-03-28T15:43:31.836Z,3.00
2018-03-28T15:45:59.366Z,2.97
2018-03-28T15:48:27.171Z,4.18
2018-03-28T15:50:54.764Z,2.12
2018-03-28T15:53:22.323Z,2.10
2018-03-28T15:55:50.046Z,2.37
2018-03-28T15:58:17.105Z,5.10
2018-03-28T16:00:45.633Z,8.70
2018-03-28T16:03:13.174Z,3.72
2018-03-28T16:05:40.746Z,4.12
2018-03-28T16:08:08.302Z,2.40
2018-03-28T16:10:36.769Z,1.65
2018-03-28T16:13:04.313Z,2.45
2018-03-28T16:15:31.859Z,1.52
2018-03-28T16:17:59.443Z,1.55
2018-03-28T16:20:26.973Z,1.90
2018-03-28T16:22:54.541Z,1.80
2018-03-28T16:25:22.109Z,2.10
2018-03-28T16:27:49.658Z,1.70
2018-03-28T16:30:17.182Z,1.55
2018-03-28T16:32:44.775Z,5.62
2018-03-28T16:35:12.312Z,8.45
2018-03-28T16:37:39.953Z,1.17
2018-03-28T16:40:07.497Z,1.60
2018-03-28T16:42:35.620Z,1.60
2018-03-28T16:45:03.412Z,0.80
2018-03-28T16:47:31.050Z,0.98
2018-03-28T16:49:58.815Z,1.02
2018-03-28T16:52:26.621Z,0.70
2018-03-28T16:54:54.158Z,1.20
2018-03-28T16:57:21.704Z,0.70
2018-03-28T16:59:49.285Z,0.85
2018-03-28T17:02:16.849Z,1.98
2018-03-28T17:04:44.382Z,1.40
2018-03-28T17:07:12.083Z,1.20
2018-03-28T17:09:39.617Z,1.52
2018-03-28T17:12:07.338Z,4.70
2018-03-28T17:14:34.865Z,1.20
2018-03-28T17:17:02.441Z,9.32
2018-03-28T17:19:30.026Z,24.00
2018-03-28T17:21:57.697Z,2.33
2018-03-28T17:24:25.334Z,2.25
2018-03-28T17:26:52.856Z,1.15
2018-03-28T17:29:20.405Z,5.75
2018-03-28T17:31:48.057Z,0.90
2018-03-28T17:34:15.629Z,1.50
2018-03-28T17:36:43.158Z,1.23
2018-03-28T17:39:10.722Z,1.10
2018-03-28T17:41:39.137Z,2.25
2018-03-28T17:44:06.913Z,1.60
2018-03-28T17:49:20.001Z,2.28
2018-03-28T17:51:47.524Z,0.90
2018-03-28T17:54:15.080Z,4.03
2018-03-28T17:56:42.612Z,2.20
2018-03-28T17:59:10.146Z,1.30
2018-03-28T18:01:38.593Z,1.55
2018-03-28T18:04:06.116Z,0.77
2018-03-28T18:06:33.644Z,0.80
2018-03-28T18:09:01.154Z,1.12
2018-03-28T18:11:28.697Z,1.83
2018-03-28T18:13:56.249Z,1.05
2018-03-28T18:16:23.786Z,2.25
2018-03-28T18:18:51.320Z,4.10
2018-03-28T18:21:18.857Z,1.48
2018-03-28T18:23:46.374Z,1.60
2018-03-28T18:26:13.927Z,2.70
2018-03-28T18:28:41.445Z,1.40
2018-03-28T18:31:08.977Z,3.35
2018-03-28T18:33:36.493Z,3.53
2018-03-28T18:36:05.193Z,16.48
2018-03-28T18:38:32.713Z,1.70
2018-03-28T18:41:00.382Z,2.33
2018-03-28T18:43:27.909Z,1.85
2018-03-28T18:45:55.422Z,1.33
2018-03-28T18:48:22.950Z,4.93
2018-03-28T18:50:50.473Z,2.33
2018-03-28T18:53:18.971Z,2.55
2018-03-28T18:55:47.448Z,3.12
2018-03-28T18:58:14.978Z,6.57
2018-03-28T19:00:43.482Z,2.70
2018-03-28T19:03:11.011Z,2.90
2018-03-28T19:05:39.545Z,2.30
2018-03-28T19:08:07.068Z,1.50
2018-03-28T19:10:34.769Z,1.90
2018-03-28T19:13:02.284Z,1.80
2018-03-28T19:15:29.825Z,1.92
2018-03-28T19:17:57.352Z,2.58
2018-03-28T19:20:24.873Z,3.20
2018-03-28T19:22:52.400Z,3.12
2018-03-28T19:25:19.945Z,3.62
2018-03-28T19:27:47.482Z,3.47
2018-03-28T19:30:15.018Z,4.22
2018-03-28T19:32:42.541Z,4.28
2018-03-28T19:35:10.101Z,4.93
2018-03-28T19:37:37.621Z,5.25
2018-03-28T19:40:05.162Z,6.05
2018-03-28T19:42:32.686Z,4.28
2018-03-28T19:45:00.231Z,4.82
2018-03-28T19:47:27.787Z,4.62
2018-03-28T19:49:55.330Z,4.05
2018-03-28T19:52:22.861Z,4.45
2018-03-28T19:54:50.406Z,5.40
2018-03-28T19:57:17.950Z,5.68
2018-03-28T19:59:45.496Z,6.22
2018-03-28T20:02:12.777Z,6.57
2018-03-28T20:04:40.692Z,4.40
2018-03-28T20:07:08.242Z,7.85
2018-03-28T20:09:35.772Z,6.03
2018-03-28T20:12:03.292Z,5.47
2018-03-28T20:14:30.809Z,5.37
2018-03-28T20:16:58.373Z,18.02
2018-03-28T20:19:25.899Z,9.35
2018-03-28T20:21:53.432Z,6.75
2018-03-28T20:24:20.979Z,2.87
2018-03-28T20:26:48.500Z,3.70
2018-03-28T20:29:16.042Z,2.45
2018-03-28T20:31:43.564Z,2.00
2018-03-28T20:34:11.090Z,2.00
2018-03-28T20:36:38.604Z,2.00
2018-03-28T20:39:05.884Z,4.60
2018-03-28T20:41:33.398Z,1.80
2018-03-28T20:44:00.921Z,2.10
2018-03-28T20:46:28.429Z,2.62
2018-03-28T20:48:55.954Z,5.28
2018-03-28T20:51:23.477Z,1.73
2018-03-28T20:53:50.994Z,1.40
2018-03-28T20:56:18.521Z,1.85
2018-03-28T20:58:46.044Z,1.60
2018-03-28T21:01:13.566Z,1.40
2018-03-28T21:03:41.078Z,1.45
2018-03-28T21:06:08.587Z,1.30
2018-03-28T21:08:36.141Z,1.77
2018-03-28T21:11:03.661Z,1.42
2018-03-28T21:13:30.936Z,1.62
2018-03-28T21:15:58.447Z,1.95
2018-03-28T21:18:25.976Z,1.50
2018-03-28T21:20:53.501Z,1.70
2018-03-28T21:23:21.017Z,1.40
2018-03-28T21:25:48.562Z,1.17
2018-03-28T21:28:16.077Z,1.30
2018-03-28T21:30:43.618Z,2.25
2018-03-28T21:33:11.137Z,1.35
2018-03-28T21:35:38.653Z,1.75
2018-03-28T21:38:06.186Z,1.27
2018-03-28T21:40:33.702Z,1.80
2018-03-28T21:43:01.245Z,2.00
2018-03-28T21:45:28.758Z,1.45
2018-03-28T21:47:56.290Z,1.45
2018-03-28T21:50:23.821Z,1.55
2018-03-28T21:52:51.337Z,2.10
2018-03-28T21:55:18.861Z,1.48
2018-03-28T21:57:46.381Z,1.70
2018-03-28T22:00:13.913Z,1.87
2018-03-28T22:02:41.434Z,1.90
2018-03-28T22:05:08.948Z,1.55
2018-03-28T22:07:36.473Z,1.55
2018-03-28T22:10:03.745Z,1.60
2018-03-28T22:12:31.274Z,1.67
2018-03-28T22:14:58.781Z,1.48
2018-03-28T22:17:26.317Z,1.65
2018-03-28T22:19:53.838Z,1.67
2018-03-28T22:22:21.357Z,1.73
2018-03-28T22:24:48.883Z,4.95
2018-03-28T22:27:16.408Z,1.48
2018-03-28T22:29:44.867Z,1.17
2018-03-28T22:32:12.393Z,1.12
2018-03-28T22:34:39.934Z,3.28
2018-03-28T22:37:07.457Z,1.00
2018-03-28T22:39:34.985Z,0.80
2018-03-28T22:42:02.495Z,0.80
2018-03-28T22:44:30.014Z,0.80
2018-03-28T22:46:57.301Z,1.98
2018-03-28T22:49:24.822Z,0.60
2018-03-28T22:51:52.361Z,0.98
2018-03-28T22:54:19.881Z,1.05
2018-03-28T22:56:47.389Z,0.75
2018-03-28T22:59:14.901Z,0.75
2018-03-28T23:01:42.416Z,1.08
2018-03-28T23:04:09.935Z,0.90
2018-03-28T23:06:37.461Z,2.55
2018-03-28T23:09:04.766Z,1.08
2018-03-28T23:11:32.315Z,1.10
2018-03-28T23:13:59.835Z,1.05
2018-03-28T23:16:27.357Z,2.80
2018-03-28T23:18:54.888Z,0.68
2018-03-28T23:21:22.422Z,1.42
2018-03-28T23:23:49.933Z,0.95
2018-03-28T23:26:18.455Z,0.70
2018-03-28T23:28:45.964Z,0.60
2018-03-28T23:31:13.472Z,0.70
2018-03-28T23:33:40.995Z,0.70
2018-03-28T23:36:08.517Z,0.95
2018-03-28T23:38:36.017Z,0.60
2018-03-28T23:41:03.581Z,0.60
2018-03-28T23:43:31.261Z,0.60
2018-03-28T23:45:58.784Z,0.40
2018-03-28T23:48:26.301Z,0.40
2018-03-28T23:50:53.841Z,0.50
2018-03-28T23:53:21.345Z,0.47
2018-03-28T23:55:48.884Z,0.50
2018-03-28T23:58:16.397Z,0.62
